sensor_id;sensor_type;location;lat;lon;timestamp;temperature;humidity
14577;DHT22;7375;46.072;14.470;2023-04-06T00:02:18;24.60;40.40
14577;DHT22;7375;46.072;14.470;2023-04-06T00:04:45;24.60;40.30
14577;DHT22;7375;46.072;14.470;2023-04-06T00:07:12;24.60;40.30
14577;DHT22;7375;46.072;14.470;2023-04-06T00:09:38;24.60;40.20
14577;DHT22;7375;46.072;14.470;2023-04-06T00:12:05;24.60;40.10
14577;DHT22;7375;46.072;14.470;2023-04-06T00:14:34;24.60;40.10
14577;DHT22;7375;46.072;14.470;2023-04-06T00:17:00;24.60;40.00
14577;DHT22;7375;46.072;14.470;2023-04-06T00:19:27;24.60;40.00
14577;DHT22;7375;46.072;14.470;2023-04-06T00:21:54;24.70;40.00
14577;DHT22;7375;46.072;14.470;2023-04-06T00:24:21;24.70;40.00
14577;DHT22;7375;46.072;14.470;2023-04-06T00:26:48;24.70;39.90
14577;DHT22;7375;46.072;14.470;2023-04-06T00:29:14;24.70;40.10
14577;DHT22;7375;46.072;14.470;2023-04-06T00:31:43;24.70;39.90
14577;DHT22;7375;46.072;14.470;2023-04-06T00:34:10;24.70;39.80
14577;DHT22;7375;46.072;14.470;2023-04-06T00:36:36;24.70;39.70
14577;DHT22;7375;46.072;14.470;2023-04-06T00:39:03;24.70;39.90
14577;DHT22;7375;46.072;14.470;2023-04-06T00:41:30;24.70;39.90
14577;DHT22;7375;46.072;14.470;2023-04-06T00:43:57;24.70;39.50
14577;DHT22;7375;46.072;14.470;2023-04-06T00:46:24;24.80;39.90
14577;DHT22;7375;46.072;14.470;2023-04-06T00:48:52;24.70;39.60
14577;DHT22;7375;46.072;14.470;2023-04-06T00:51:19;24.80;39.70
14577;DHT22;7375;46.072;14.470;2023-04-06T00:53:46;24.80;39.60
14577;DHT22;7375;46.072;14.470;2023-04-06T00:56:12;24.80;39.60
14577;DHT22;7375;46.072;14.470;2023-04-06T00:58:39;24.80;39.50
14577;DHT22;7375;46.072;14.470;2023-04-06T01:01:06;24.80;39.40
14577;DHT22;7375;46.072;14.470;2023-04-06T01:03:33;24.80;39.50
14577;DHT22;7375;46.072;14.470;2023-04-06T01:06:01;24.80;39.40
14577;DHT22;7375;46.072;14.470;2023-04-06T01:08:28;24.80;39.50
14577;DHT22;7375;46.072;14.470;2023-04-06T01:10:55;24.90;39.50
14577;DHT22;7375;46.072;14.470;2023-04-06T01:13:22;24.90;39.50
14577;DHT22;7375;46.072;14.470;2023-04-06T01:15:49;24.90;39.40
14577;DHT22;7375;46.072;14.470;2023-04-06T01:18:16;24.90;39.50
14577;DHT22;7375;46.072;14.470;2023-04-06T01:20:43;24.90;39.40
14577;DHT22;7375;46.072;14.470;2023-04-06T01:23:11;24.90;39.30
14577;DHT22;7375;46.072;14.470;2023-04-06T01:25:38;25.00;39.50
14577;DHT22;7375;46.072;14.470;2023-04-06T01:28:04;25.00;39.40
14577;DHT22;7375;46.072;14.470;2023-04-06T01:30:31;25.00;39.30
14577;DHT22;7375;46.072;14.470;2023-04-06T01:32:58;25.00;39.40
14577;DHT22;7375;46.072;14.470;2023-04-06T01:35:25;25.00;39.20
14577;DHT22;7375;46.072;14.470;2023-04-06T01:37:52;25.00;39.30
14577;DHT22;7375;46.072;14.470;2023-04-06T01:40:20;25.00;39.20
14577;DHT22;7375;46.072;14.470;2023-04-06T01:42:47;25.00;39.30
14577;DHT22;7375;46.072;14.470;2023-04-06T01:45:14;25.10;39.30
14577;DHT22;7375;46.072;14.470;2023-04-06T01:47:41;25.10;39.10
14577;DHT22;7375;46.072;14.470;2023-04-06T01:50:08;25.10;39.20
14577;DHT22;7375;46.072;14.470;2023-04-06T01:52:35;25.10;39.30
14577;DHT22;7375;46.072;14.470;2023-04-06T01:55:02;25.10;39.10
14577;DHT22;7375;46.072;14.470;2023-04-06T01:57:30;25.10;39.20
14577;DHT22;7375;46.072;14.470;2023-04-06T01:59:57;25.10;39.10
14577;DHT22;7375;46.072;14.470;2023-04-06T02:02:24;25.20;39.00
14577;DHT22;7375;46.072;14.470;2023-04-06T02:04:51;25.10;38.90
14577;DHT22;7375;46.072;14.470;2023-04-06T02:07:18;25.10;38.90
14577;DHT22;7375;46.072;14.470;2023-04-06T02:09:45;25.10;38.90
14577;DHT22;7375;46.072;14.470;2023-04-06T02:12:11;25.10;38.90
14577;DHT22;7375;46.072;14.470;2023-04-06T02:14:40;25.10;38.90
14577;DHT22;7375;46.072;14.470;2023-04-06T02:17:07;25.20;38.90
14577;DHT22;7375;46.072;14.470;2023-04-06T02:19:33;25.20;38.90
14577;DHT22;7375;46.072;14.470;2023-04-06T02:22:00;25.20;38.80
14577;DHT22;7375;46.072;14.470;2023-04-06T02:24:27;25.20;38.70
14577;DHT22;7375;46.072;14.470;2023-04-06T02:26:54;25.20;38.80
14577;DHT22;7375;46.072;14.470;2023-04-06T02:29:20;25.20;38.80
14577;DHT22;7375;46.072;14.470;2023-04-06T02:31:49;25.20;38.60
14577;DHT22;7375;46.072;14.470;2023-04-06T02:34:15;25.20;38.50
14577;DHT22;7375;46.072;14.470;2023-04-06T02:36:44;25.20;39.00
14577;DHT22;7375;46.072;14.470;2023-04-06T02:39:10;25.20;38.50
14577;DHT22;7375;46.072;14.470;2023-04-06T02:41:38;25.20;38.60
14577;DHT22;7375;46.072;14.470;2023-04-06T02:44:06;25.20;38.50
14577;DHT22;7375;46.072;14.470;2023-04-06T02:46:33;25.30;38.50
14577;DHT22;7375;46.072;14.470;2023-04-06T02:49:02;25.20;38.40
14577;DHT22;7375;46.072;14.470;2023-04-06T02:51:28;25.20;38.60
14577;DHT22;7375;46.072;14.470;2023-04-06T02:53:55;25.20;38.50
14577;DHT22;7375;46.072;14.470;2023-04-06T02:56:22;25.20;38.50
14577;DHT22;7375;46.072;14.470;2023-04-06T02:58:49;25.20;38.50
14577;DHT22;7375;46.072;14.470;2023-04-06T03:01:16;25.20;38.40
14577;DHT22;7375;46.072;14.470;2023-04-06T03:03:42;25.30;38.60
14577;DHT22;7375;46.072;14.470;2023-04-06T03:06:11;25.30;38.30
14577;DHT22;7375;46.072;14.470;2023-04-06T03:08:38;25.40;38.20
14577;DHT22;7375;46.072;14.470;2023-04-06T03:11:04;25.40;38.10
14577;DHT22;7375;46.072;14.470;2023-04-06T03:13:31;25.50;38.10
14577;DHT22;7375;46.072;14.470;2023-04-06T03:15:58;25.50;38.00
14577;DHT22;7375;46.072;14.470;2023-04-06T03:18:25;25.50;37.90
14577;DHT22;7375;46.072;14.470;2023-04-06T03:20:51;25.60;37.90
14577;DHT22;7375;46.072;14.470;2023-04-06T03:23:21;25.60;37.90
14577;DHT22;7375;46.072;14.470;2023-04-06T03:25:47;25.60;37.90
14577;DHT22;7375;46.072;14.470;2023-04-06T03:28:14;25.60;37.90
14577;DHT22;7375;46.072;14.470;2023-04-06T03:30:42;25.60;37.60
14577;DHT22;7375;46.072;14.470;2023-04-06T03:33:08;25.60;37.90
14577;DHT22;7375;46.072;14.470;2023-04-06T03:35:35;25.60;37.80
14577;DHT22;7375;46.072;14.470;2023-04-06T03:38:02;25.60;37.70
14577;DHT22;7375;46.072;14.470;2023-04-06T03:40:31;25.70;37.70
14577;DHT22;7375;46.072;14.470;2023-04-06T03:42:58;25.70;37.70
14577;DHT22;7375;46.072;14.470;2023-04-06T03:45:24;25.80;37.50
14577;DHT22;7375;46.072;14.470;2023-04-06T03:47:51;25.80;37.40
14577;DHT22;7375;46.072;14.470;2023-04-06T03:50:18;25.90;37.40
14577;DHT22;7375;46.072;14.470;2023-04-06T03:52:45;26.00;37.20
14577;DHT22;7375;46.072;14.470;2023-04-06T03:55:11;26.10;37.30
14577;DHT22;7375;46.072;14.470;2023-04-06T03:57:40;26.10;37.20
14577;DHT22;7375;46.072;14.470;2023-04-06T04:00:07;26.10;37.10
14577;DHT22;7375;46.072;14.470;2023-04-06T04:02:34;26.10;37.10
14577;DHT22;7375;46.072;14.470;2023-04-06T04:05:01;26.10;37.00
14577;DHT22;7375;46.072;14.470;2023-04-06T04:07:28;26.10;37.00
14577;DHT22;7375;46.072;14.470;2023-04-06T04:09:54;26.10;36.90
14577;DHT22;7375;46.072;14.470;2023-04-06T04:12:21;26.20;36.90
14577;DHT22;7375;46.072;14.470;2023-04-06T04:14:49;26.20;37.00
14577;DHT22;7375;46.072;14.470;2023-04-06T04:17:16;26.20;37.00
14577;DHT22;7375;46.072;14.470;2023-04-06T04:19:43;26.20;36.90
14577;DHT22;7375;46.072;14.470;2023-04-06T04:22:10;26.20;37.00
14577;DHT22;7375;46.072;14.470;2023-04-06T04:24:36;26.20;36.90
14577;DHT22;7375;46.072;14.470;2023-04-06T04:27:03;26.20;36.90
14577;DHT22;7375;46.072;14.470;2023-04-06T04:29:31;26.30;37.00
14577;DHT22;7375;46.072;14.470;2023-04-06T04:31:59;26.20;36.80
14577;DHT22;7375;46.072;14.470;2023-04-06T04:34:26;26.20;36.80
14577;DHT22;7375;46.072;14.470;2023-04-06T04:36:53;26.20;36.90
14577;DHT22;7375;46.072;14.470;2023-04-06T04:39:20;26.30;36.80
14577;DHT22;7375;46.072;14.470;2023-04-06T04:41:47;26.30;36.90
14577;DHT22;7375;46.072;14.470;2023-04-06T04:44:13;26.30;36.80
14577;DHT22;7375;46.072;14.470;2023-04-06T04:46:41;26.30;36.80
14577;DHT22;7375;46.072;14.470;2023-04-06T04:49:09;26.30;36.90
14577;DHT22;7375;46.072;14.470;2023-04-06T04:51:36;26.30;37.00
14577;DHT22;7375;46.072;14.470;2023-04-06T04:54:03;26.30;37.10
14577;DHT22;7375;46.072;14.470;2023-04-06T04:56:29;26.30;37.20
14577;DHT22;7375;46.072;14.470;2023-04-06T04:58:56;26.30;37.00
14577;DHT22;7375;46.072;14.470;2023-04-06T05:01:23;26.30;37.10
14577;DHT22;7375;46.072;14.470;2023-04-06T05:03:50;26.30;37.00
14577;DHT22;7375;46.072;14.470;2023-04-06T05:06:18;26.30;37.10
14577;DHT22;7375;46.072;14.470;2023-04-06T05:08:45;26.30;37.00
14577;DHT22;7375;46.072;14.470;2023-04-06T05:11:12;26.30;37.00
14577;DHT22;7375;46.072;14.470;2023-04-06T05:13:39;26.40;37.10
14577;DHT22;7375;46.072;14.470;2023-04-06T05:16:06;26.40;37.00
14577;DHT22;7375;46.072;14.470;2023-04-06T05:18:33;26.40;37.10
14577;DHT22;7375;46.072;14.470;2023-04-06T05:20:59;26.40;37.20
14577;DHT22;7375;46.072;14.470;2023-04-06T05:23:27;26.40;37.50
14577;DHT22;7375;46.072;14.470;2023-04-06T05:25:54;26.40;37.50
14577;DHT22;7375;46.072;14.470;2023-04-06T05:28:21;26.30;37.30
14577;DHT22;7375;46.072;14.470;2023-04-06T05:30:48;26.10;37.10
14577;DHT22;7375;46.072;14.470;2023-04-06T05:33:15;26.00;37.30
14577;DHT22;7375;46.072;14.470;2023-04-06T05:35:42;25.80;37.60
14577;DHT22;7375;46.072;14.470;2023-04-06T05:38:09;25.60;37.70
14577;DHT22;7375;46.072;14.470;2023-04-06T05:40:37;25.50;37.90
14577;DHT22;7375;46.072;14.470;2023-04-06T05:43:06;25.30;38.30
14577;DHT22;7375;46.072;14.470;2023-04-06T05:45:33;25.20;38.70
14577;DHT22;7375;46.072;14.470;2023-04-06T05:48:00;25.00;39.00
14577;DHT22;7375;46.072;14.470;2023-04-06T05:50:27;24.80;39.50
14577;DHT22;7375;46.072;14.470;2023-04-06T05:52:54;24.70;40.30
14577;DHT22;7375;46.072;14.470;2023-04-06T05:55:20;24.50;40.40
14577;DHT22;7375;46.072;14.470;2023-04-06T05:57:49;24.40;40.60
14577;DHT22;7375;46.072;14.470;2023-04-06T06:00:16;24.30;40.70
14577;DHT22;7375;46.072;14.470;2023-04-06T06:02:42;24.20;41.10
14577;DHT22;7375;46.072;14.470;2023-04-06T06:05:10;24.00;41.20
14577;DHT22;7375;46.072;14.470;2023-04-06T06:07:36;23.90;41.40
14577;DHT22;7375;46.072;14.470;2023-04-06T06:10:03;23.70;41.40
14577;DHT22;7375;46.072;14.470;2023-04-06T06:12:30;23.70;41.50
14577;DHT22;7375;46.072;14.470;2023-04-06T06:14:58;23.50;43.20
14577;DHT22;7375;46.072;14.470;2023-04-06T06:17:25;23.50;42.20
14577;DHT22;7375;46.072;14.470;2023-04-06T06:19:52;23.60;41.90
14577;DHT22;7375;46.072;14.470;2023-04-06T06:22:19;23.60;41.40
14577;DHT22;7375;46.072;14.470;2023-04-06T06:24:46;23.60;40.90
14577;DHT22;7375;46.072;14.470;2023-04-06T06:27:13;23.50;40.60
14577;DHT22;7375;46.072;14.470;2023-04-06T06:29:39;23.50;40.50
14577;DHT22;7375;46.072;14.470;2023-04-06T06:32:07;23.40;40.50
14577;DHT22;7375;46.072;14.470;2023-04-06T06:34:35;23.40;40.50
14577;DHT22;7375;46.072;14.470;2023-04-06T06:37:02;23.40;40.10
14577;DHT22;7375;46.072;14.470;2023-04-06T06:39:29;23.30;40.00
14577;DHT22;7375;46.072;14.470;2023-04-06T06:41:56;23.30;39.70
14577;DHT22;7375;46.072;14.470;2023-04-06T06:44:25;23.30;39.80
14577;DHT22;7375;46.072;14.470;2023-04-06T06:46:52;23.30;39.90
14577;DHT22;7375;46.072;14.470;2023-04-06T06:49:21;23.30;39.90
14577;DHT22;7375;46.072;14.470;2023-04-06T06:51:48;23.30;40.00
14577;DHT22;7375;46.072;14.470;2023-04-06T06:54:14;23.30;40.10
14577;DHT22;7375;46.072;14.470;2023-04-06T06:56:41;23.30;40.10
14577;DHT22;7375;46.072;14.470;2023-04-06T06:59:08;23.30;40.10
14577;DHT22;7375;46.072;14.470;2023-04-06T07:01:35;23.30;40.30
14577;DHT22;7375;46.072;14.470;2023-04-06T07:04:03;23.30;40.40
14577;DHT22;7375;46.072;14.470;2023-04-06T07:06:31;23.30;40.60
14577;DHT22;7375;46.072;14.470;2023-04-06T07:08:58;23.30;40.80
14577;DHT22;7375;46.072;14.470;2023-04-06T07:11:24;23.30;40.90
14577;DHT22;7375;46.072;14.470;2023-04-06T07:13:51;23.30;40.90
14577;DHT22;7375;46.072;14.470;2023-04-06T07:16:18;23.30;41.10
14577;DHT22;7375;46.072;14.470;2023-04-06T07:18:45;23.30;41.20
14577;DHT22;7375;46.072;14.470;2023-04-06T07:21:12;23.30;41.40
14577;DHT22;7375;46.072;14.470;2023-04-06T07:23:40;23.30;41.40
14577;DHT22;7375;46.072;14.470;2023-04-06T07:26:07;23.40;41.70
14577;DHT22;7375;46.072;14.470;2023-04-06T07:28:33;23.40;41.80
14577;DHT22;7375;46.072;14.470;2023-04-06T07:31:00;23.40;41.80
14577;DHT22;7375;46.072;14.470;2023-04-06T07:33:27;23.40;41.90
14577;DHT22;7375;46.072;14.470;2023-04-06T07:35:55;23.40;42.10
14577;DHT22;7375;46.072;14.470;2023-04-06T07:38:22;23.40;42.20
14577;DHT22;7375;46.072;14.470;2023-04-06T07:40:51;23.40;42.20
14577;DHT22;7375;46.072;14.470;2023-04-06T07:43:18;23.50;42.50
14577;DHT22;7375;46.072;14.470;2023-04-06T07:45:45;23.50;42.50
14577;DHT22;7375;46.072;14.470;2023-04-06T07:48:11;23.50;42.60
14577;DHT22;7375;46.072;14.470;2023-04-06T07:50:38;23.50;42.80
14577;DHT22;7375;46.072;14.470;2023-04-06T07:53:05;23.50;42.80
14577;DHT22;7375;46.072;14.470;2023-04-06T07:55:32;23.50;42.80
14577;DHT22;7375;46.072;14.470;2023-04-06T07:58:00;23.50;43.00
14577;DHT22;7375;46.072;14.470;2023-04-06T08:00:27;23.60;43.00
14577;DHT22;7375;46.072;14.470;2023-04-06T08:02:54;23.60;43.00
14577;DHT22;7375;46.072;14.470;2023-04-06T08:05:21;23.50;43.00
14577;DHT22;7375;46.072;14.470;2023-04-06T08:07:48;23.60;43.10
14577;DHT22;7375;46.072;14.470;2023-04-06T08:10:14;23.60;43.10
14577;DHT22;7375;46.072;14.470;2023-04-06T08:12:41;23.60;43.00
14577;DHT22;7375;46.072;14.470;2023-04-06T08:15:10;23.60;43.10
14577;DHT22;7375;46.072;14.470;2023-04-06T08:17:37;23.60;43.00
14577;DHT22;7375;46.072;14.470;2023-04-06T08:20:04;23.60;43.10
14577;DHT22;7375;46.072;14.470;2023-04-06T08:22:31;23.60;43.20
14577;DHT22;7375;46.072;14.470;2023-04-06T08:25:04;23.60;43.30
14577;DHT22;7375;46.072;14.470;2023-04-06T08:27:31;23.60;43.30
14577;DHT22;7375;46.072;14.470;2023-04-06T08:29:58;23.60;43.30
14577;DHT22;7375;46.072;14.470;2023-04-06T08:32:26;23.60;43.30
14577;DHT22;7375;46.072;14.470;2023-04-06T08:34:53;23.60;43.30
14577;DHT22;7375;46.072;14.470;2023-04-06T08:37:21;23.60;43.30
14577;DHT22;7375;46.072;14.470;2023-04-06T08:39:47;23.60;43.30
14577;DHT22;7375;46.072;14.470;2023-04-06T08:42:16;23.70;43.40
14577;DHT22;7375;46.072;14.470;2023-04-06T08:44:43;23.70;43.40
14577;DHT22;7375;46.072;14.470;2023-04-06T08:47:11;23.70;43.30
14577;DHT22;7375;46.072;14.470;2023-04-06T08:49:39;23.70;43.80
14577;DHT22;7375;46.072;14.470;2023-04-06T08:52:06;23.70;43.20
14577;DHT22;7375;46.072;14.470;2023-04-06T08:54:34;23.80;43.20
14577;DHT22;7375;46.072;14.470;2023-04-06T08:57:01;23.80;43.20
14577;DHT22;7375;46.072;14.470;2023-04-06T08:59:28;23.80;43.10
14577;DHT22;7375;46.072;14.470;2023-04-06T09:01:55;23.90;43.20
14577;DHT22;7375;46.072;14.470;2023-04-06T09:04:22;23.90;43.20
14577;DHT22;7375;46.072;14.470;2023-04-06T09:06:50;23.90;43.20
14577;DHT22;7375;46.072;14.470;2023-04-06T09:09:20;23.90;43.10
14577;DHT22;7375;46.072;14.470;2023-04-06T09:11:50;23.90;43.00
14577;DHT22;7375;46.072;14.470;2023-04-06T09:14:32;23.90;43.10
14577;DHT22;7375;46.072;14.470;2023-04-06T09:16:59;23.90;43.10
14577;DHT22;7375;46.072;14.470;2023-04-06T09:19:26;23.90;43.00
14577;DHT22;7375;46.072;14.470;2023-04-06T09:22:02;23.90;43.00
14577;DHT22;7375;46.072;14.470;2023-04-06T09:24:38;23.90;43.00
14577;DHT22;7375;46.072;14.470;2023-04-06T09:27:06;23.90;42.90
14577;DHT22;7375;46.072;14.470;2023-04-06T09:29:32;23.90;42.80
14577;DHT22;7375;46.072;14.470;2023-04-06T09:32:03;23.90;42.70
14577;DHT22;7375;46.072;14.470;2023-04-06T09:34:30;23.80;42.70
14577;DHT22;7375;46.072;14.470;2023-04-06T09:36:57;23.80;42.50
14577;DHT22;7375;46.072;14.470;2023-04-06T09:39:26;23.80;42.30
14577;DHT22;7375;46.072;14.470;2023-04-06T09:41:53;23.80;42.20
14577;DHT22;7375;46.072;14.470;2023-04-06T09:44:21;23.70;42.10
14577;DHT22;7375;46.072;14.470;2023-04-06T09:46:49;23.70;42.10
14577;DHT22;7375;46.072;14.470;2023-04-06T09:49:16;23.70;42.00
14577;DHT22;7375;46.072;14.470;2023-04-06T09:51:44;23.70;42.00
14577;DHT22;7375;46.072;14.470;2023-04-06T09:54:12;23.60;41.90
14577;DHT22;7375;46.072;14.470;2023-04-06T09:56:45;23.60;42.00
14577;DHT22;7375;46.072;14.470;2023-04-06T09:59:13;23.60;41.90
14577;DHT22;7375;46.072;14.470;2023-04-06T10:01:40;23.60;42.00
14577;DHT22;7375;46.072;14.470;2023-04-06T10:04:10;23.50;41.90
14577;DHT22;7375;46.072;14.470;2023-04-06T10:06:40;23.50;42.10
14577;DHT22;7375;46.072;14.470;2023-04-06T10:09:07;23.50;42.10
14577;DHT22;7375;46.072;14.470;2023-04-06T10:11:34;23.50;42.20
14577;DHT22;7375;46.072;14.470;2023-04-06T10:14:02;23.40;42.10
14577;DHT22;7375;46.072;14.470;2023-04-06T10:16:29;23.40;42.10
14577;DHT22;7375;46.072;14.470;2023-04-06T10:18:58;23.40;42.20
14577;DHT22;7375;46.072;14.470;2023-04-06T10:21:26;23.40;42.20
14577;DHT22;7375;46.072;14.470;2023-04-06T10:23:57;23.30;42.20
14577;DHT22;7375;46.072;14.470;2023-04-06T10:26:25;23.30;42.10
14577;DHT22;7375;46.072;14.470;2023-04-06T10:28:52;23.30;42.20
14577;DHT22;7375;46.072;14.470;2023-04-06T10:31:27;23.20;42.20
14577;DHT22;7375;46.072;14.470;2023-04-06T10:33:54;23.20;42.20
14577;DHT22;7375;46.072;14.470;2023-04-06T10:36:22;23.20;42.20
14577;DHT22;7375;46.072;14.470;2023-04-06T10:38:53;23.20;42.20
14577;DHT22;7375;46.072;14.470;2023-04-06T10:41:20;23.20;42.20
14577;DHT22;7375;46.072;14.470;2023-04-06T10:43:54;23.10;42.10
14577;DHT22;7375;46.072;14.470;2023-04-06T10:46:24;23.10;42.20
14577;DHT22;7375;46.072;14.470;2023-04-06T10:48:52;23.10;42.20
14577;DHT22;7375;46.072;14.470;2023-04-06T10:51:19;23.10;42.20
14577;DHT22;7375;46.072;14.470;2023-04-06T10:53:52;23.00;42.00
14577;DHT22;7375;46.072;14.470;2023-04-06T10:56:21;23.00;42.00
14577;DHT22;7375;46.072;14.470;2023-04-06T10:58:49;23.00;42.20
14577;DHT22;7375;46.072;14.470;2023-04-06T11:01:16;23.00;42.20
14577;DHT22;7375;46.072;14.470;2023-04-06T11:03:43;23.00;42.00
14577;DHT22;7375;46.072;14.470;2023-04-06T11:06:12;22.90;42.00
14577;DHT22;7375;46.072;14.470;2023-04-06T11:08:43;22.90;42.00
14577;DHT22;7375;46.072;14.470;2023-04-06T11:11:12;22.90;42.20
14577;DHT22;7375;46.072;14.470;2023-04-06T11:13:41;22.90;42.20
14577;DHT22;7375;46.072;14.470;2023-04-06T11:16:14;22.90;42.30
14577;DHT22;7375;46.072;14.470;2023-04-06T11:18:51;22.80;42.30
14577;DHT22;7375;46.072;14.470;2023-04-06T11:21:20;22.80;42.30
14577;DHT22;7375;46.072;14.470;2023-04-06T11:23:48;22.80;42.30
14577;DHT22;7375;46.072;14.470;2023-04-06T11:26:15;22.80;42.50
14577;DHT22;7375;46.072;14.470;2023-04-06T11:28:42;22.70;42.40
14577;DHT22;7375;46.072;14.470;2023-04-06T11:31:09;22.70;42.40
14577;DHT22;7375;46.072;14.470;2023-04-06T11:33:36;22.70;41.60
14577;DHT22;7375;46.072;14.470;2023-04-06T11:36:03;22.70;41.70
14577;DHT22;7375;46.072;14.470;2023-04-06T11:38:32;22.70;41.80
14577;DHT22;7375;46.072;14.470;2023-04-06T11:40:59;22.60;40.50
14577;DHT22;7375;46.072;14.470;2023-04-06T11:43:27;22.60;40.50
14577;DHT22;7375;46.072;14.470;2023-04-06T11:45:59;22.60;40.70
14577;DHT22;7375;46.072;14.470;2023-04-06T11:48:26;22.50;40.70
14577;DHT22;7375;46.072;14.470;2023-04-06T11:50:55;22.50;40.90
14577;DHT22;7375;46.072;14.470;2023-04-06T11:53:22;22.50;40.40
14577;DHT22;7375;46.072;14.470;2023-04-06T11:55:50;22.50;41.60
14577;DHT22;7375;46.072;14.470;2023-04-06T11:58:17;22.50;42.00
14577;DHT22;7375;46.072;14.470;2023-04-06T12:00:44;22.40;41.10
14577;DHT22;7375;46.072;14.470;2023-04-06T12:03:12;22.40;41.20
14577;DHT22;7375;46.072;14.470;2023-04-06T12:05:39;22.40;41.30
14577;DHT22;7375;46.072;14.470;2023-04-06T12:08:06;22.40;41.90
14577;DHT22;7375;46.072;14.470;2023-04-06T12:10:33;22.40;41.90
14577;DHT22;7375;46.072;14.470;2023-04-06T12:13:01;22.40;41.70
14577;DHT22;7375;46.072;14.470;2023-04-06T12:15:28;22.30;41.60
14577;DHT22;7375;46.072;14.470;2023-04-06T12:17:55;22.30;42.40
14577;DHT22;7375;46.072;14.470;2023-04-06T12:20:21;22.30;42.70
14577;DHT22;7375;46.072;14.470;2023-04-06T12:22:48;22.30;42.20
14577;DHT22;7375;46.072;14.470;2023-04-06T12:25:15;22.30;42.70
14577;DHT22;7375;46.072;14.470;2023-04-06T12:27:42;22.30;42.70
14577;DHT22;7375;46.072;14.470;2023-04-06T12:30:12;22.30;43.20
14577;DHT22;7375;46.072;14.470;2023-04-06T12:32:39;22.30;43.40
14577;DHT22;7375;46.072;14.470;2023-04-06T12:35:06;22.30;43.10
14577;DHT22;7375;46.072;14.470;2023-04-06T12:37:34;22.20;42.80
14577;DHT22;7375;46.072;14.470;2023-04-06T12:40:01;22.20;43.50
14577;DHT22;7375;46.072;14.470;2023-04-06T12:42:28;22.20;43.70
14577;DHT22;7375;46.072;14.470;2023-04-06T12:44:55;22.20;43.80
14577;DHT22;7375;46.072;14.470;2023-04-06T12:47:24;22.20;43.90
14577;DHT22;7375;46.072;14.470;2023-04-06T12:49:51;22.20;43.80
14577;DHT22;7375;46.072;14.470;2023-04-06T12:52:19;22.20;44.00
14577;DHT22;7375;46.072;14.470;2023-04-06T12:54:47;22.20;44.00
14577;DHT22;7375;46.072;14.470;2023-04-06T12:57:13;22.10;44.00
14577;DHT22;7375;46.072;14.470;2023-04-06T12:59:42;22.10;44.10
14577;DHT22;7375;46.072;14.470;2023-04-06T13:02:09;22.10;43.90
14577;DHT22;7375;46.072;14.470;2023-04-06T13:04:38;22.10;44.10
14577;DHT22;7375;46.072;14.470;2023-04-06T13:07:05;22.10;44.10
14577;DHT22;7375;46.072;14.470;2023-04-06T13:09:32;22.10;44.20
14577;DHT22;7375;46.072;14.470;2023-04-06T13:11:59;22.10;44.20
14577;DHT22;7375;46.072;14.470;2023-04-06T13:14:26;22.10;44.30
14577;DHT22;7375;46.072;14.470;2023-04-06T13:16:53;22.10;44.30
14577;DHT22;7375;46.072;14.470;2023-04-06T13:19:19;22.10;44.30
14577;DHT22;7375;46.072;14.470;2023-04-06T13:21:48;22.00;44.20
14577;DHT22;7375;46.072;14.470;2023-04-06T13:24:15;22.00;44.20
14577;DHT22;7375;46.072;14.470;2023-04-06T13:26:42;22.00;44.10
14577;DHT22;7375;46.072;14.470;2023-04-06T13:29:08;22.00;44.30
14577;DHT22;7375;46.072;14.470;2023-04-06T13:31:35;22.00;44.40
14577;DHT22;7375;46.072;14.470;2023-04-06T13:34:02;22.00;44.40
14577;DHT22;7375;46.072;14.470;2023-04-06T13:36:29;22.00;44.40
14577;DHT22;7375;46.072;14.470;2023-04-06T13:38:58;22.00;44.30
14577;DHT22;7375;46.072;14.470;2023-04-06T13:41:25;22.00;44.40
14577;DHT22;7375;46.072;14.470;2023-04-06T13:43:52;21.90;44.20
14577;DHT22;7375;46.072;14.470;2023-04-06T13:46:19;21.90;44.30
14577;DHT22;7375;46.072;14.470;2023-04-06T13:48:46;21.90;44.30
14577;DHT22;7375;46.072;14.470;2023-04-06T13:51:13;21.90;44.30
14577;DHT22;7375;46.072;14.470;2023-04-06T13:53:40;21.90;44.40
14577;DHT22;7375;46.072;14.470;2023-04-06T13:56:12;21.90;44.20
14577;DHT22;7375;46.072;14.470;2023-04-06T13:58:38;21.90;44.20
14577;DHT22;7375;46.072;14.470;2023-04-06T14:01:05;21.90;44.20
14577;DHT22;7375;46.072;14.470;2023-04-06T14:03:34;21.90;44.40
14577;DHT22;7375;46.072;14.470;2023-04-06T14:06:01;21.90;44.30
14577;DHT22;7375;46.072;14.470;2023-04-06T14:08:35;21.90;44.40
14577;DHT22;7375;46.072;14.470;2023-04-06T14:11:02;21.80;44.00
14577;DHT22;7375;46.072;14.470;2023-04-06T14:13:30;21.80;44.10
14577;DHT22;7375;46.072;14.470;2023-04-06T14:15:57;21.90;44.20
14577;DHT22;7375;46.072;14.470;2023-04-06T14:18:24;21.80;44.00
14577;DHT22;7375;46.072;14.470;2023-04-06T14:20:56;21.80;43.90
14577;DHT22;7375;46.072;14.470;2023-04-06T14:23:23;21.80;43.80
14577;DHT22;7375;46.072;14.470;2023-04-06T14:25:51;21.80;43.70
14577;DHT22;7375;46.072;14.470;2023-04-06T14:28:24;21.80;43.90
14577;DHT22;7375;46.072;14.470;2023-04-06T14:30:53;21.80;43.70
14577;DHT22;7375;46.072;14.470;2023-04-06T14:33:20;21.80;43.70
14577;DHT22;7375;46.072;14.470;2023-04-06T14:35:47;21.80;43.80
14577;DHT22;7375;46.072;14.470;2023-04-06T14:38:14;21.80;43.70
14577;DHT22;7375;46.072;14.470;2023-04-06T14:40:40;21.80;43.70
14577;DHT22;7375;46.072;14.470;2023-04-06T14:43:07;21.70;43.80
14577;DHT22;7375;46.072;14.470;2023-04-06T14:45:34;21.70;43.80
14577;DHT22;7375;46.072;14.470;2023-04-06T14:48:03;21.70;43.80
14577;DHT22;7375;46.072;14.470;2023-04-06T14:50:31;21.70;43.80
14577;DHT22;7375;46.072;14.470;2023-04-06T14:52:58;21.70;43.60
14577;DHT22;7375;46.072;14.470;2023-04-06T14:55:25;21.70;43.50
14577;DHT22;7375;46.072;14.470;2023-04-06T14:57:51;21.70;43.40
14577;DHT22;7375;46.072;14.470;2023-04-06T15:00:19;21.70;43.40
14577;DHT22;7375;46.072;14.470;2023-04-06T15:02:45;21.70;43.40
14577;DHT22;7375;46.072;14.470;2023-04-06T15:05:14;21.70;43.20
14577;DHT22;7375;46.072;14.470;2023-04-06T15:07:40;21.70;43.40
14577;DHT22;7375;46.072;14.470;2023-04-06T15:10:08;21.70;43.30
14577;DHT22;7375;46.072;14.470;2023-04-06T15:12:35;21.70;43.20
14577;DHT22;7375;46.072;14.470;2023-04-06T15:15:02;21.70;43.20
14577;DHT22;7375;46.072;14.470;2023-04-06T15:17:30;21.60;43.10
14577;DHT22;7375;46.072;14.470;2023-04-06T15:19:57;21.60;43.20
14577;DHT22;7375;46.072;14.470;2023-04-06T15:22:25;21.60;43.10
14577;DHT22;7375;46.072;14.470;2023-04-06T15:24:52;21.60;43.20
14577;DHT22;7375;46.072;14.470;2023-04-06T15:27:18;21.60;43.30
14577;DHT22;7375;46.072;14.470;2023-04-06T15:29:46;21.60;43.20
14577;DHT22;7375;46.072;14.470;2023-04-06T15:32:12;21.60;43.00